createdAt,value
2023-02-04T00:00:06.928Z,9.747449
2023-02-04T00:01:06.909Z,9.747378
2023-02-04T00:02:06.920Z,9.747449
2023-02-04T00:03:06.991Z,9.747384
2023-02-04T00:04:06.870Z,9.747398
2023-02-04T00:05:06.923Z,9.747246
2023-02-04T00:06:06.950Z,9.747367
2023-02-04T00:07:06.893Z,9.746989
2023-02-04T00:08:06.843Z,9.747524
2023-02-04T00:09:06.854Z,9.747462
2023-02-04T00:10:06.816Z,9.747267
2023-02-04T00:11:06.828Z,9.747536
2023-02-04T00:12:06.836Z,9.747441
2023-02-04T00:13:06.803Z,9.747460
2023-02-04T00:14:06.781Z,9.747292
2023-02-04T00:15:06.786Z,9.747314
2023-02-04T00:16:06.839Z,9.747213
2023-02-04T00:17:06.795Z,9.747328
2023-02-04T00:18:06.758Z,9.747515
2023-02-04T00:19:06.761Z,9.747437
2023-02-04T00:20:06.748Z,9.747541
2023-02-04T00:21:06.734Z,9.747371
2023-02-04T00:22:06.746Z,9.747481
2023-02-04T00:23:07.720Z,9.747422
2023-02-04T00:24:06.718Z,9.747474
2023-02-04T00:25:06.699Z,9.747354
2023-02-04T00:26:06.711Z,9.747286
2023-02-04T00:27:06.731Z,9.747440
2023-02-04T00:28:06.714Z,9.747456
2023-02-04T00:29:06.668Z,9.747191
2023-02-04T00:30:06.816Z,9.747101
2023-02-04T00:31:06.694Z,9.747396
2023-02-04T00:32:06.753Z,9.747383
2023-02-04T00:33:06.647Z,9.747377
2023-02-04T00:34:06.649Z,9.747638
2023-02-04T00:35:06.650Z,9.747384
2023-02-04T00:36:06.629Z,9.747356
2023-02-04T00:37:06.651Z,9.747436
2023-02-04T00:38:06.619Z,9.747666
2023-02-04T00:39:06.613Z,9.747336
2023-02-04T00:40:06.609Z,9.747329
2023-02-04T00:41:06.587Z,9.747456
2023-02-04T00:42:06.624Z,9.747349
2023-02-04T00:43:06.597Z,9.747414
2023-02-04T00:44:06.572Z,9.747396
2023-02-04T00:45:06.572Z,9.747295
2023-02-04T00:46:06.604Z,9.747278
2023-02-04T00:47:06.576Z,9.747235
2023-02-04T00:48:06.545Z,9.747244
2023-02-04T00:49:06.592Z,9.747325
2023-02-04T00:50:06.561Z,9.747318
2023-02-04T00:51:06.544Z,9.747289
2023-02-04T00:52:06.559Z,9.747165
2023-02-04T00:53:06.528Z,9.747229
2023-02-04T00:54:06.494Z,9.747330
2023-02-04T00:55:06.493Z,9.747318
2023-02-04T00:56:06.489Z,9.747313
2023-02-04T00:57:06.501Z,9.747305
2023-02-04T00:58:06.511Z,9.747384
2023-02-04T00:59:06.469Z,9.747229
2023-02-04T01:00:06.521Z,9.747101
2023-02-04T01:01:06.604Z,9.747148
2023-02-04T01:02:06.495Z,9.747143
2023-02-04T01:03:06.494Z,9.747221
2023-02-04T01:04:07.444Z,9.747266
2023-02-04T01:05:06.486Z,9.747300
2023-02-04T01:06:06.420Z,9.747287
2023-02-04T01:07:06.535Z,9.747355
2023-02-04T01:08:06.431Z,9.747421
2023-02-04T01:09:06.408Z,9.747515
2023-02-04T01:10:06.434Z,9.747476
2023-02-04T01:11:06.408Z,9.747620
2023-02-04T01:12:06.411Z,9.747570
2023-02-04T01:13:06.364Z,9.747495
2023-02-04T01:14:06.364Z,9.747421
2023-02-04T01:15:06.351Z,9.747544
2023-02-04T01:16:06.418Z,9.747504
2023-02-04T01:17:06.352Z,9.747434
2023-02-04T01:18:06.385Z,9.747503
2023-02-04T01:19:06.338Z,9.747480
2023-02-04T01:20:06.340Z,9.747506
2023-02-04T01:21:06.306Z,9.747459
2023-02-04T01:22:06.293Z,9.747427
2023-02-04T01:23:06.351Z,9.747445
2023-02-04T01:24:06.273Z,9.747526
2023-02-04T01:25:06.272Z,9.747468
2023-02-04T01:26:06.251Z,9.747457
2023-02-04T01:27:06.252Z,9.747528
2023-02-04T01:28:06.443Z,9.747490
2023-02-04T01:29:06.294Z,9.747449
2023-02-04T01:30:06.232Z,9.747467
2023-02-04T01:31:06.340Z,9.747462
2023-02-04T01:32:06.272Z,9.747465
2023-02-04T01:33:06.253Z,9.747407
2023-02-04T01:34:06.206Z,9.747425
2023-02-04T01:35:06.235Z,9.747442
2023-02-04T01:36:06.246Z,9.747545
2023-02-04T01:37:06.188Z,9.747463
2023-02-04T01:38:06.219Z,9.747480
2023-02-04T01:39:06.146Z,9.747462
2023-02-04T01:40:07.261Z,9.747435
2023-02-04T01:41:06.188Z,9.747401
2023-02-04T01:42:06.181Z,9.747421
2023-02-04T01:43:06.243Z,9.747473
2023-02-04T01:44:06.159Z,9.747463
2023-02-04T01:45:06.163Z,9.747489
2023-02-04T01:46:06.256Z,9.747416
2023-02-04T01:47:06.123Z,9.747341
2023-02-04T01:48:06.123Z,9.747501
2023-02-04T01:49:06.388Z,9.747442
2023-02-04T01:50:06.252Z,9.747403
2023-02-04T01:51:06.088Z,9.747434
2023-02-04T01:52:06.092Z,9.747486
2023-02-04T01:53:06.169Z,9.747586
2023-02-04T01:54:06.061Z,9.747509
2023-02-04T01:55:06.092Z,9.747560
2023-02-04T01:56:06.079Z,9.747544
2023-02-04T01:57:06.030Z,9.747490
2023-02-04T01:58:06.062Z,9.747508
2023-02-04T01:59:06.039Z,9.747474
2023-02-04T02:00:06.203Z,9.747477
2023-02-04T02:01:06.047Z,9.747482
2023-02-04T02:02:06.462Z,9.747430
2023-02-04T02:03:06.082Z,9.747423
2023-02-04T02:04:05.985Z,9.747409
2023-02-04T02:05:06.011Z,9.747322
2023-02-04T02:06:06.003Z,9.747257
2023-02-04T02:07:05.994Z,9.747212
2023-02-04T02:08:06.037Z,9.747353
2023-02-04T02:09:05.986Z,9.747390
2023-02-04T02:10:05.931Z,9.747505
2023-02-04T02:11:05.988Z,9.747408
2023-02-04T02:12:05.924Z,9.747447
2023-02-04T02:13:05.972Z,9.747411
2023-02-04T02:14:05.949Z,9.747309
2023-02-04T02:15:05.932Z,9.747350
2023-02-04T02:16:05.939Z,9.747370
2023-02-04T02:17:05.959Z,9.747368
2023-02-04T02:18:05.941Z,9.747329
2023-02-04T02:19:05.903Z,9.747394
2023-02-04T02:20:05.879Z,9.747248
2023-02-04T02:21:05.882Z,9.747395
2023-02-04T02:22:05.851Z,9.747448
2023-02-04T02:23:05.912Z,9.747381
2023-02-04T02:24:06.845Z,9.747577
2023-02-04T02:25:06.221Z,9.747442
2023-02-04T02:26:05.830Z,9.747444
2023-02-04T02:27:05.929Z,9.747421
2023-02-04T02:28:05.943Z,9.747398
2023-02-04T02:29:05.797Z,9.747460
2023-02-04T02:30:05.819Z,9.747473
2023-02-04T02:31:05.879Z,9.747456
2023-02-04T02:32:05.788Z,9.747445
2023-02-04T02:33:05.828Z,9.747372
2023-02-04T02:34:05.780Z,9.747410
2023-02-04T02:35:05.751Z,9.747453
2023-02-04T02:36:05.776Z,9.747416
2023-02-04T02:37:05.735Z,9.747434
2023-02-04T02:38:05.874Z,9.747363
2023-02-04T02:39:05.740Z,9.747418
2023-02-04T02:40:05.785Z,9.747373
2023-02-04T02:41:05.713Z,9.747416
2023-02-04T02:42:05.730Z,9.747437
2023-02-04T02:43:05.750Z,9.747458
2023-02-04T02:44:05.689Z,9.747358
2023-02-04T02:45:05.675Z,9.747463
2023-02-04T02:46:05.791Z,9.747415
2023-02-04T02:47:05.662Z,9.747176
2023-02-04T02:48:05.693Z,9.747407
2023-02-04T02:49:05.656Z,9.747392
2023-02-04T02:50:05.681Z,9.747121
2023-02-04T02:51:05.687Z,9.746969
2023-02-04T02:52:05.724Z,9.747446
2023-02-04T02:53:05.664Z,9.747395
2023-02-04T02:54:05.598Z,9.746948
2023-02-04T02:55:05.647Z,9.746546
2023-02-04T02:56:05.875Z,9.747066
2023-02-04T02:57:05.636Z,9.746870
2023-02-04T02:58:05.614Z,9.746837
2023-02-04T02:59:05.565Z,9.747109
2023-02-04T03:00:05.724Z,9.746714
2023-02-04T03:01:05.911Z,9.747390
2023-02-04T03:02:05.712Z,9.747343
2023-02-04T03:03:05.596Z,9.747537
2023-02-04T03:04:05.557Z,9.747490
2023-02-04T03:05:05.556Z,9.747577
2023-02-04T03:06:05.531Z,9.747120
2023-02-04T03:07:05.603Z,9.746609
2023-02-04T03:08:05.665Z,9.746766
2023-02-04T03:09:05.494Z,9.747459
2023-02-04T03:10:05.504Z,9.747476
2023-02-04T03:11:05.492Z,9.747627
2023-02-04T03:12:05.463Z,9.747470
2023-02-04T03:13:05.560Z,9.747421
2023-02-04T03:14:05.471Z,9.747455
2023-02-04T03:15:05.440Z,9.747396
2023-02-04T03:16:05.624Z,9.747400
2023-02-04T03:17:05.435Z,9.747462
2023-02-04T03:18:05.544Z,9.747398
2023-02-04T03:19:05.490Z,9.747402
2023-02-04T03:20:05.476Z,9.747487
2023-02-04T03:21:05.477Z,9.747413
2023-02-04T03:22:05.474Z,9.747387
2023-02-04T03:23:05.420Z,9.747392
2023-02-04T03:24:05.413Z,9.747336
2023-02-04T03:25:05.392Z,9.747392
2023-02-04T03:26:05.430Z,9.747252
2023-02-04T03:27:06.398Z,9.747394
2023-02-04T03:28:05.487Z,9.747313
2023-02-04T03:29:05.355Z,9.747318
2023-02-04T03:30:05.373Z,9.747327
2023-02-04T03:31:05.395Z,9.747375
2023-02-04T03:32:05.331Z,9.747161
2023-02-04T03:33:05.370Z,9.747401
2023-02-04T03:34:05.371Z,9.747331
2023-02-04T03:35:05.337Z,9.747338
2023-02-04T03:36:05.324Z,9.747260
2023-02-04T03:37:05.276Z,9.747293
2023-02-04T03:38:05.320Z,9.747300
2023-02-04T03:39:05.273Z,9.747358
2023-02-04T03:40:05.317Z,9.747519
2023-02-04T03:41:05.249Z,9.747446
2023-02-04T03:42:05.302Z,9.747516
2023-02-04T03:43:05.260Z,9.747422
2023-02-04T03:44:05.319Z,9.747411
2023-02-04T03:45:05.247Z,9.747419
2023-02-04T03:46:05.330Z,9.747379
2023-02-04T03:47:05.250Z,9.747390
2023-02-04T03:48:05.221Z,9.747407
2023-02-04T03:49:05.227Z,9.747305
2023-02-04T03:50:05.225Z,9.747293
2023-02-04T03:51:05.227Z,9.747390
2023-02-04T03:52:05.393Z,9.747380
2023-02-04T03:53:05.189Z,9.747441
2023-02-04T03:54:05.202Z,9.747422
2023-02-04T03:55:05.148Z,9.747389
2023-02-04T03:56:05.157Z,9.747383
2023-02-04T03:57:05.141Z,9.747397
2023-02-04T03:58:05.162Z,9.747408
2023-02-04T03:59:05.141Z,9.747427
2023-02-04T04:00:05.133Z,9.747401
2023-02-04T04:01:05.142Z,9.747347
2023-02-04T04:02:05.116Z,9.747363
2023-02-04T04:03:05.185Z,9.747503
2023-02-04T04:04:05.249Z,9.747385
2023-02-04T04:05:05.095Z,9.747313
2023-02-04T04:06:05.061Z,9.747381
2023-02-04T04:07:05.085Z,9.747339
2023-02-04T04:08:05.045Z,9.747313
2023-02-04T04:09:05.091Z,9.747374
2023-02-04T04:10:05.030Z,9.747419
2023-02-04T04:11:05.059Z,9.747389
2023-02-04T04:12:05.048Z,9.747377
2023-02-04T04:13:05.044Z,9.747398
2023-02-04T04:14:05.051Z,9.747445
2023-02-04T04:15:04.990Z,9.747458
2023-02-04T04:16:05.141Z,9.747450
2023-02-04T04:17:04.990Z,9.747437
2023-02-04T04:18:05.000Z,9.747432
2023-02-04T04:19:05.056Z,9.747478
2023-02-04T04:20:04.995Z,9.747452
2023-02-04T04:21:04.958Z,9.747431
2023-02-04T04:22:04.957Z,9.747506
2023-02-04T04:23:05.007Z,9.747526
2023-02-04T04:24:04.988Z,9.747575
2023-02-04T04:25:04.939Z,9.747500
2023-02-04T04:26:04.969Z,9.747470
2023-02-04T04:27:04.911Z,9.747493
2023-02-04T04:28:04.941Z,9.747460
2023-02-04T04:29:05.924Z,9.747543
2023-02-04T04:30:04.968Z,9.747425
2023-02-04T04:31:05.007Z,9.747468
2023-02-04T04:32:04.922Z,9.747401
2023-02-04T04:33:04.882Z,9.747404
2023-02-04T04:34:04.952Z,9.747429
2023-02-04T04:35:04.852Z,9.747501
2023-02-04T04:36:04.852Z,9.747445
2023-02-04T04:37:04.849Z,9.747449
2023-02-04T04:38:04.822Z,9.747416
2023-02-04T04:39:04.891Z,9.747485
2023-02-04T04:40:05.869Z,9.747472
2023-02-04T04:41:04.836Z,9.747428
2023-02-04T04:42:04.794Z,9.747500
2023-02-04T04:43:04.794Z,9.747576
2023-02-04T04:44:04.812Z,9.747443
2023-02-04T04:45:04.804Z,9.747389
2023-02-04T04:46:04.782Z,9.747414
2023-02-04T04:47:04.755Z,9.747396
2023-02-04T04:48:04.769Z,9.747439
2023-02-04T04:49:04.792Z,9.747489
2023-02-04T04:50:04.788Z,9.747404
2023-02-04T04:51:04.731Z,9.747487
2023-02-04T04:52:04.726Z,9.747362
2023-02-04T04:53:04.718Z,9.747406
2023-02-04T04:54:04.793Z,9.747396
2023-02-04T04:55:04.722Z,9.747349
2023-02-04T04:56:04.854Z,9.747295
2023-02-04T04:57:04.730Z,9.747262
2023-02-04T04:58:04.708Z,9.747290
2023-02-04T04:59:04.792Z,9.747382
2023-02-04T05:00:04.708Z,9.747371
2023-02-04T05:01:04.703Z,9.747373
2023-02-04T05:02:04.638Z,9.747458
2023-02-04T05:03:04.651Z,9.747332
2023-02-04T05:04:04.723Z,9.747349
2023-02-04T05:05:04.785Z,9.747288
2023-02-04T05:06:04.630Z,9.747344
2023-02-04T05:07:05.615Z,9.747252
2023-02-04T05:08:04.588Z,9.747354
2023-02-04T05:09:04.847Z,9.747270
2023-02-04T05:10:04.657Z,9.747355
2023-02-04T05:11:04.647Z,9.747408
2023-02-04T05:12:04.652Z,9.747410
2023-02-04T05:13:04.619Z,9.747320
2023-02-04T05:14:04.709Z,9.747377
2023-02-04T05:15:04.579Z,9.747426
2023-02-04T05:16:04.595Z,9.747339
2023-02-04T05:17:04.657Z,9.747459
2023-02-04T05:18:04.596Z,9.747303
2023-02-04T05:19:04.590Z,9.747370
2023-02-04T05:20:04.517Z,9.747381
2023-02-04T05:21:04.584Z,9.747358
2023-02-04T05:22:04.584Z,9.747502
2023-02-04T05:23:05.732Z,9.747531
2023-02-04T05:24:05.507Z,9.747534
2023-02-04T05:25:04.564Z,9.747390
2023-02-04T05:26:04.468Z,9.747467
2023-02-04T05:27:04.468Z,9.747523
2023-02-04T05:28:04.601Z,9.747402
2023-02-04T05:29:04.488Z,9.747364
2023-02-04T05:30:04.519Z,9.747331
2023-02-04T05:31:04.565Z,9.747463
2023-02-04T05:32:04.545Z,9.747466
2023-02-04T05:33:04.410Z,9.747371
2023-02-04T05:34:04.466Z,9.747365
2023-02-04T05:35:05.618Z,9.747422
2023-02-04T05:36:05.401Z,9.747454
2023-02-04T05:37:04.471Z,9.747351
2023-02-04T05:38:04.404Z,9.747426
2023-02-04T05:39:04.398Z,9.747426
2023-02-04T05:40:04.354Z,9.747355
2023-02-04T05:41:04.363Z,9.747435
2023-02-04T05:42:04.376Z,9.747427
2023-02-04T05:43:04.384Z,9.747487
2023-02-04T05:44:04.409Z,9.747560
2023-02-04T05:45:04.368Z,9.747551
2023-02-04T05:46:04.460Z,9.747307
2023-02-04T05:47:04.361Z,9.747343
2023-02-04T05:48:04.370Z,9.747468
2023-02-04T05:49:04.431Z,9.747438
2023-02-04T05:50:04.381Z,9.747355
2023-02-04T05:51:04.323Z,9.747300
2023-02-04T05:52:04.335Z,9.747324
2023-02-04T05:53:04.392Z,9.747346
2023-02-04T05:54:04.397Z,9.747409
2023-02-04T05:55:04.401Z,9.747413
2023-02-04T05:56:04.317Z,9.747478
2023-02-04T05:57:04.265Z,9.747364
2023-02-04T05:58:04.268Z,9.747320
2023-02-04T05:59:04.276Z,9.747401
2023-02-04T06:00:04.259Z,9.747480
2023-02-04T06:01:04.401Z,9.747328
2023-02-04T06:02:04.252Z,9.747313
2023-02-04T06:03:04.226Z,9.747322
2023-02-04T06:04:04.285Z,9.747350
2023-02-04T06:05:04.169Z,9.747429
2023-02-04T06:06:04.384Z,9.747527
2023-02-04T06:07:04.233Z,9.747376
2023-02-04T06:08:04.178Z,9.747240
2023-02-04T06:09:04.159Z,9.747249
2023-02-04T06:10:04.262Z,9.747255
2023-02-04T06:11:04.147Z,9.747383
2023-02-04T06:12:04.105Z,9.747490
2023-02-04T06:13:04.141Z,9.747524
2023-02-04T06:14:04.204Z,9.747472
2023-02-04T06:15:04.145Z,9.747334
2023-02-04T06:16:04.087Z,9.747219
2023-02-04T06:17:04.095Z,9.747362
2023-02-04T06:18:04.092Z,9.747342
2023-02-04T06:19:04.099Z,9.747376
2023-02-04T06:20:04.115Z,9.747355
2023-02-04T06:21:04.111Z,9.747245
2023-02-04T06:22:04.106Z,9.747348
2023-02-04T06:23:04.030Z,9.747374
2023-02-04T06:24:05.439Z,9.747317
2023-02-04T06:25:05.066Z,9.747364
2023-02-04T06:26:04.058Z,9.747418
2023-02-04T06:27:03.997Z,9.747368
2023-02-04T06:28:04.181Z,9.747408
2023-02-04T06:29:04.033Z,9.747430
2023-02-04T06:30:04.018Z,9.747374
2023-02-04T06:31:04.106Z,9.747271
2023-02-04T06:32:04.120Z,9.747409
2023-02-04T06:33:03.967Z,9.747240
2023-02-04T06:34:03.935Z,9.747259
2023-02-04T06:35:04.098Z,9.747156
2023-02-04T06:36:03.954Z,9.747234
2023-02-04T06:37:03.946Z,9.747261
2023-02-04T06:38:03.910Z,9.747344
2023-02-04T06:39:03.900Z,9.747313
2023-02-04T06:40:03.922Z,9.747261
2023-02-04T06:41:03.889Z,9.747172
2023-02-04T06:42:03.899Z,9.747274
2023-02-04T06:43:04.622Z,9.747298
2023-02-04T06:44:04.930Z,9.747270
2023-02-04T06:45:03.921Z,9.747299
2023-02-04T06:46:04.007Z,9.747398
2023-02-04T06:47:03.921Z,9.747325
2023-02-04T06:48:04.005Z,9.747381
2023-02-04T06:49:03.850Z,9.747399
2023-02-04T06:50:03.910Z,9.747431
2023-02-04T06:51:03.848Z,9.747449
2023-02-04T06:52:03.821Z,9.747371
2023-02-04T06:53:03.824Z,9.747455
2023-02-04T06:54:03.857Z,9.747394
2023-02-04T06:55:03.907Z,9.747441
2023-02-04T06:56:03.877Z,9.747456
2023-02-04T06:57:03.798Z,9.747400
2023-02-04T06:58:03.781Z,9.747333
2023-02-04T06:59:03.826Z,9.747232
2023-02-04T07:00:03.822Z,9.747305
2023-02-04T07:01:03.812Z,9.747382
2023-02-04T07:02:03.728Z,9.747334
2023-02-04T07:03:03.719Z,9.747338
2023-02-04T07:04:03.740Z,9.747335
2023-02-04T07:05:03.742Z,9.747380
2023-02-04T07:06:03.700Z,9.747367
2023-02-04T07:07:03.704Z,9.747362
2023-02-04T07:08:03.688Z,9.747419
2023-02-04T07:09:03.688Z,9.747471
2023-02-04T07:10:03.717Z,9.747566
2023-02-04T07:11:03.678Z,9.747369
2023-02-04T07:12:03.651Z,9.747208
2023-02-04T07:13:03.648Z,9.747335
2023-02-04T07:14:03.646Z,9.747387
2023-02-04T07:15:03.663Z,9.747309
2023-02-04T07:16:03.770Z,9.747202
2023-02-04T07:17:03.620Z,9.747270
2023-02-04T07:18:03.605Z,9.747233
2023-02-04T07:19:03.600Z,9.747327
2023-02-04T07:20:03.618Z,9.747246
2023-02-04T07:21:03.597Z,9.747195
2023-02-04T07:22:03.608Z,9.747261
2023-02-04T07:23:03.576Z,9.747258
2023-02-04T07:24:03.565Z,9.747364
2023-02-04T07:25:03.635Z,9.747470
2023-02-04T07:26:03.562Z,9.747410
2023-02-04T07:27:03.575Z,9.747448
2023-02-04T07:28:03.548Z,9.747334
2023-02-04T07:29:03.543Z,9.747303
2023-02-04T07:30:03.549Z,9.747256
2023-02-04T07:31:03.719Z,9.747213
2023-02-04T07:32:03.609Z,9.747265
2023-02-04T07:33:03.516Z,9.747270
2023-02-04T07:34:03.490Z,9.747380
2023-02-04T07:35:03.529Z,9.747408
2023-02-04T07:36:03.489Z,9.747314
2023-02-04T07:37:03.473Z,9.747351
2023-02-04T07:38:03.457Z,9.747479
2023-02-04T07:39:03.444Z,9.747415
2023-02-04T07:40:03.474Z,9.747373
2023-02-04T07:41:03.429Z,9.747402
2023-02-04T07:42:03.411Z,9.747205
2023-02-04T07:43:03.413Z,9.747252
2023-02-04T07:44:03.416Z,9.747211
2023-02-04T07:45:03.415Z,9.747345
2023-02-04T07:46:03.424Z,9.747412
2023-02-04T07:47:03.373Z,9.747404
2023-02-04T07:48:03.373Z,9.747266
2023-02-04T07:49:03.376Z,9.747201
2023-02-04T07:50:03.387Z,9.747272
2023-02-04T07:51:03.358Z,9.747270
2023-02-04T07:52:03.342Z,9.747325
2023-02-04T07:53:03.325Z,9.747177
2023-02-04T07:54:03.365Z,9.747272
2023-02-04T07:55:03.339Z,9.747356
2023-02-04T07:56:03.310Z,9.747323
2023-02-04T07:57:03.321Z,9.747345
2023-02-04T07:58:03.294Z,9.747369
2023-02-04T07:59:03.287Z,9.747367
2023-02-04T08:00:03.304Z,9.747335
2023-02-04T08:01:03.288Z,9.747299
2023-02-04T08:02:03.270Z,9.747270
2023-02-04T08:03:03.392Z,9.747366
2023-02-04T08:04:03.250Z,9.747408
2023-02-04T08:05:03.274Z,9.747305
2023-02-04T08:06:03.235Z,9.747364
2023-02-04T08:07:03.233Z,9.747386
2023-02-04T08:08:03.219Z,9.747363
2023-02-04T08:09:03.205Z,9.747347
2023-02-04T08:10:03.242Z,9.747380
2023-02-04T08:11:03.188Z,9.747412
2023-02-04T08:12:03.193Z,9.747292
2023-02-04T08:13:03.179Z,9.747403
2023-02-04T08:14:03.181Z,9.747443
2023-02-04T08:15:03.194Z,9.747440
2023-02-04T08:16:03.193Z,9.747410
2023-02-04T08:17:03.145Z,9.747396
2023-02-04T08:18:03.140Z,9.747450
2023-02-04T08:19:03.137Z,9.747402
2023-02-04T08:20:03.191Z,9.747338
2023-02-04T08:21:03.239Z,9.747298
2023-02-04T08:22:03.125Z,9.747299
2023-02-04T08:23:03.121Z,9.747258
2023-02-04T08:24:03.112Z,9.747321
2023-02-04T08:25:03.222Z,9.747268
2023-02-04T08:26:03.172Z,9.747309
2023-02-04T08:27:03.077Z,9.747286
2023-02-04T08:28:03.144Z,9.747329
2023-02-04T08:29:03.053Z,9.747261
2023-02-04T08:30:03.164Z,9.747292
2023-02-04T08:31:03.175Z,9.747215
2023-02-04T08:32:03.129Z,9.747266
2023-02-04T08:33:03.060Z,9.747300
2023-02-04T08:34:03.071Z,9.747265
2023-02-04T08:35:03.924Z,9.747384
2023-02-04T08:36:03.037Z,9.747213
2023-02-04T08:37:03.051Z,9.747367
2023-02-04T08:38:03.037Z,9.747255
2023-02-04T08:39:03.015Z,9.747538
2023-02-04T08:40:03.075Z,9.747230
2023-02-04T08:41:02.966Z,9.747075
2023-02-04T08:42:02.992Z,9.747118
2023-02-04T08:43:03.049Z,9.747211
2023-02-04T08:44:03.049Z,9.747204
2023-02-04T08:45:03.253Z,9.747394
2023-02-04T08:46:03.043Z,9.747484
2023-02-04T08:47:02.970Z,9.747376
2023-02-04T08:48:02.964Z,9.747273
2023-02-04T08:49:03.075Z,9.747215
2023-02-04T08:50:03.027Z,9.747218
2023-02-04T08:51:02.930Z,9.747317
2023-02-04T08:52:02.931Z,9.747202
2023-02-04T08:53:02.930Z,9.747239
2023-02-04T08:54:02.941Z,9.747216
2023-02-04T08:55:02.921Z,9.747243
2023-02-04T08:56:02.884Z,9.747315
2023-02-04T08:57:02.936Z,9.747287
2023-02-04T08:58:02.932Z,9.747231
2023-02-04T08:59:02.954Z,9.747315
2023-02-04T09:00:02.880Z,9.747193
2023-02-04T09:01:02.974Z,9.747234
2023-02-04T09:02:02.903Z,9.747189
2023-02-04T09:03:02.923Z,9.747302
2023-02-04T09:04:02.838Z,9.747235
2023-02-04T09:05:02.836Z,9.747287
2023-02-04T09:06:02.873Z,9.747410
2023-02-04T09:07:02.809Z,9.747360
2023-02-04T09:08:02.803Z,9.747272
2023-02-04T09:09:02.867Z,9.747425
2023-02-04T09:10:02.831Z,9.747453
2023-02-04T09:11:02.840Z,9.747711
2023-02-04T09:12:02.784Z,9.748163
2023-02-04T09:13:02.779Z,9.747928
2023-02-04T09:14:02.831Z,9.747962
2023-02-04T09:15:02.782Z,9.747940
2023-02-04T09:16:03.138Z,9.747652
2023-02-04T09:17:02.755Z,9.747627
2023-02-04T09:18:02.757Z,9.747460
2023-02-04T09:19:02.822Z,9.747505
2023-02-04T09:20:02.726Z,9.747622
2023-02-04T09:21:02.761Z,9.747726
2023-02-04T09:22:02.755Z,9.747624
2023-02-04T09:23:02.761Z,9.747624
2023-02-04T09:24:02.710Z,9.747647
2023-02-04T09:25:02.704Z,9.747709
2023-02-04T09:26:02.750Z,9.747709
2023-02-04T09:27:02.837Z,9.747612
2023-02-04T09:28:02.745Z,9.747545
2023-02-04T09:29:02.653Z,9.747587
2023-02-04T09:30:02.650Z,9.747613
2023-02-04T09:31:04.532Z,9.747635
2023-02-04T09:32:03.714Z,9.747473
2023-02-04T09:33:02.617Z,9.747576
2023-02-04T09:34:02.687Z,9.747602
2023-02-04T09:35:02.736Z,9.747568
2023-02-04T09:36:02.765Z,9.747436
2023-02-04T09:37:02.653Z,9.747556
2023-02-04T09:38:02.608Z,9.747591
2023-02-04T09:39:02.684Z,9.747547
2023-02-04T09:40:02.578Z,9.747661
2023-02-04T09:41:02.733Z,9.747690
2023-02-04T09:42:02.692Z,9.747639
2023-02-04T09:43:02.564Z,9.747543
2023-02-04T09:44:02.619Z,9.747668
2023-02-04T09:45:02.591Z,9.747574
2023-02-04T09:46:02.655Z,9.747621
2023-02-04T09:47:03.602Z,9.747508
2023-02-04T09:48:02.519Z,9.747643
2023-02-04T09:49:02.577Z,9.747682
2023-02-04T09:50:02.545Z,9.747624
2023-02-04T09:51:02.559Z,9.747705
2023-02-04T09:52:02.628Z,9.747599
2023-02-04T09:53:02.556Z,9.747648
2023-02-04T09:54:02.559Z,9.747767
2023-02-04T09:55:02.485Z,9.747691
2023-02-04T09:56:02.524Z,9.747654
2023-02-04T09:57:02.505Z,9.747640
2023-02-04T09:58:02.434Z,9.747586
2023-02-04T09:59:02.436Z,9.747530
2023-02-04T10:00:02.562Z,9.747580
2023-02-04T10:01:02.565Z,9.747585
2023-02-04T10:02:02.470Z,9.747585
2023-02-04T10:03:02.371Z,9.747514
2023-02-04T10:04:02.545Z,9.747605
2023-02-04T10:05:02.373Z,9.747532
2023-02-04T10:06:02.449Z,9.747516
2023-02-04T10:07:02.390Z,9.747554
2023-02-04T10:08:02.369Z,9.747515
2023-02-04T10:09:02.385Z,9.747489
2023-02-04T10:10:02.332Z,9.747414
2023-02-04T10:11:02.370Z,9.747498
2023-02-04T10:12:02.355Z,9.747483
2023-02-04T10:13:02.324Z,9.747537
2023-02-04T10:14:02.406Z,9.747571
2023-02-04T10:15:02.314Z,9.747521
2023-02-04T10:16:02.406Z,9.747594
2023-02-04T10:17:02.483Z,9.747551
2023-02-04T10:18:02.269Z,9.747588
2023-02-04T10:19:02.389Z,9.747624
2023-02-04T10:20:02.284Z,9.747557
2023-02-04T10:21:02.364Z,9.747532
2023-02-04T10:22:02.368Z,9.747516
2023-02-04T10:23:02.360Z,9.747541
2023-02-04T10:24:02.293Z,9.747479
2023-02-04T10:25:02.384Z,9.747578
2023-02-04T10:26:02.339Z,9.747647
2023-02-04T10:27:02.311Z,9.747569
2023-02-04T10:28:02.450Z,9.747341
2023-02-04T10:29:02.373Z,9.747341
2023-02-04T10:30:02.185Z,9.747258
2023-02-04T10:31:02.484Z,9.747310
2023-02-04T10:32:02.194Z,9.747245
2023-02-04T10:33:02.192Z,9.747257
2023-02-04T10:34:02.260Z,9.747251
2023-02-04T10:35:02.257Z,9.747435
2023-02-04T10:36:02.179Z,9.747343
2023-02-04T10:37:02.179Z,9.747358
2023-02-04T10:38:02.184Z,9.747344
2023-02-04T10:39:02.155Z,9.747334
2023-02-04T10:40:02.244Z,9.747349
2023-02-04T10:41:02.458Z,9.747347
2023-02-04T10:42:02.106Z,9.747229
2023-02-04T10:43:02.181Z,9.747325
2023-02-04T10:44:02.230Z,9.747365
2023-02-04T10:45:02.144Z,9.747333
2023-02-04T10:46:02.218Z,9.747317
2023-02-04T10:47:02.116Z,9.747320
2023-02-04T10:48:02.062Z,9.747346
2023-02-04T10:49:02.125Z,9.747315
2023-02-04T10:50:02.031Z,9.747356
2023-02-04T10:51:02.073Z,9.747391
2023-02-04T10:52:02.087Z,9.747473
2023-02-04T10:53:02.079Z,9.747383
2023-02-04T10:54:02.030Z,9.747424
2023-02-04T10:55:02.049Z,9.747451
2023-02-04T10:56:02.197Z,9.747387
2023-02-04T10:57:03.045Z,9.747334
2023-02-04T10:58:02.035Z,9.747372
2023-02-04T10:59:02.042Z,9.747399
2023-02-04T11:00:02.010Z,9.747397
2023-02-04T11:01:02.018Z,9.747402
2023-02-04T11:02:02.054Z,9.747346
2023-02-04T11:03:02.024Z,9.747409
2023-02-04T11:04:01.992Z,9.747222
2023-02-04T11:05:02.040Z,9.747381
2023-02-04T11:06:01.932Z,9.747390
2023-02-04T11:07:01.962Z,9.747486
2023-02-04T11:08:01.924Z,9.747641
2023-02-04T11:09:01.894Z,9.747567
2023-02-04T11:10:01.912Z,9.747418
2023-02-04T11:11:01.922Z,9.747535
2023-02-04T11:12:01.931Z,9.747169
2023-02-04T11:13:01.966Z,9.747141
2023-02-04T11:14:01.910Z,9.747325
2023-02-04T11:15:01.890Z,9.747272
2023-02-04T11:16:01.938Z,9.747113
2023-02-04T11:17:01.916Z,9.747252
2023-02-04T11:18:01.825Z,9.747232
2023-02-04T11:19:01.889Z,9.747425
2023-02-04T11:20:01.869Z,9.747316
2023-02-04T11:21:01.843Z,9.747321
2023-02-04T11:22:01.949Z,9.747393
2023-02-04T11:23:01.810Z,9.747510
2023-02-04T11:24:01.779Z,9.747690
2023-02-04T11:25:01.862Z,9.747512
2023-02-04T11:26:01.808Z,9.747380
2023-02-04T11:27:01.769Z,9.747247
2023-02-04T11:28:01.852Z,9.747272
2023-02-04T11:29:01.794Z,9.747329
2023-02-04T11:30:01.768Z,9.747278
2023-02-04T11:31:01.957Z,9.747215
2023-02-04T11:32:01.925Z,9.747356
2023-02-04T11:33:01.729Z,9.747395
2023-02-04T11:34:01.735Z,9.747416
2023-02-04T11:35:01.735Z,9.747367
2023-02-04T11:36:01.697Z,9.747374
2023-02-04T11:37:01.723Z,9.747380
2023-02-04T11:38:01.706Z,9.747238
2023-02-04T11:39:01.655Z,9.747379
2023-02-04T11:40:01.660Z,9.747388
2023-02-04T11:41:01.771Z,9.747460
2023-02-04T11:42:01.803Z,9.747419
2023-02-04T11:43:01.685Z,9.747444
2023-02-04T11:44:01.641Z,9.747414